createdAt,value
2023-05-11T00:01:05.571Z,3.30
2023-05-11T00:03:33.679Z,3.60
2023-05-11T00:06:01.887Z,2.80
2023-05-11T00:08:29.761Z,2.80
2023-05-11T00:10:57.588Z,3.10
2023-05-11T00:13:26.884Z,3.63
2023-05-11T00:15:54.729Z,2.93
2023-05-11T00:18:23.021Z,2.90
2023-05-11T00:20:51.179Z,2.90
2023-05-11T00:23:19.074Z,3.03
2023-05-11T00:25:46.999Z,2.80
2023-05-11T00:28:15.080Z,3.23
2023-05-11T00:30:45.367Z,2.90
2023-05-11T00:33:13.266Z,3.23
2023-05-11T00:35:41.711Z,2.73
2023-05-11T00:38:09.562Z,3.10
2023-05-11T00:40:37.492Z,2.80
2023-05-11T00:43:05.650Z,3.47
2023-05-11T00:45:33.842Z,3.10
2023-05-11T00:48:03.715Z,3.00
2023-05-11T00:50:32.065Z,3.30
2023-05-11T00:53:00.127Z,3.07
2023-05-11T00:55:28.977Z,2.97
2023-05-11T00:57:57.124Z,3.23
2023-05-11T01:00:25.090Z,2.80
2023-05-11T01:02:53.731Z,3.40
2023-05-11T01:05:23.578Z,3.33
2023-05-11T01:08:06.601Z,3.87
2023-05-11T01:10:42.917Z,3.43
2023-05-11T01:13:18.610Z,4.00
2023-05-11T01:15:51.743Z,3.27
2023-05-11T01:18:24.939Z,3.10
2023-05-11T01:20:57.884Z,3.67
2023-05-11T01:23:45.723Z,3.47
2023-05-11T01:26:47.623Z,3.00
2023-05-11T01:29:41.506Z,3.53
2023-05-11T01:32:18.237Z,4.20
2023-05-11T01:34:47.356Z,3.10
2023-05-11T01:37:17.708Z,3.80
2023-05-11T01:39:53.134Z,3.27
2023-05-11T01:42:26.085Z,3.27
2023-05-11T01:44:57.062Z,3.40
2023-05-11T01:47:29.459Z,3.50
2023-05-11T01:49:58.968Z,3.23
2023-05-11T01:52:28.236Z,4.00
2023-05-11T01:54:57.837Z,3.57
2023-05-11T01:57:26.858Z,4.77
2023-05-11T01:59:57.395Z,3.50
2023-05-11T02:02:28.689Z,4.30
2023-05-11T02:04:57.711Z,4.50
2023-05-11T02:07:26.032Z,4.23
2023-05-11T02:09:56.335Z,4.47
2023-05-11T02:12:26.798Z,4.60
2023-05-11T02:14:55.825Z,3.47
2023-05-11T02:17:25.503Z,4.50
2023-05-11T02:19:55.704Z,4.50
2023-05-11T02:22:25.726Z,4.20
2023-05-11T02:24:53.854Z,5.00
2023-05-11T02:27:21.837Z,4.83
2023-05-11T02:29:49.775Z,5.47
2023-05-11T02:32:21.353Z,3.80
2023-05-11T02:34:55.603Z,4.10
2023-05-11T02:37:28.343Z,4.30
2023-05-11T02:40:00.811Z,4.90
2023-05-11T02:42:32.154Z,4.17
2023-05-11T02:45:03.392Z,4.33
2023-05-11T02:47:33.690Z,4.23
2023-05-11T02:50:05.773Z,4.83
2023-05-11T02:52:37.379Z,5.23
2023-05-11T02:55:06.917Z,4.23
2023-05-11T02:57:34.965Z,4.67
2023-05-11T03:00:03.979Z,5.00
2023-05-11T03:02:32.099Z,5.17
2023-05-11T03:05:00.030Z,4.17
2023-05-11T03:07:28.174Z,5.20
2023-05-11T03:09:59.809Z,4.50
2023-05-11T03:12:31.754Z,4.17
2023-05-11T03:15:00.233Z,3.77
2023-05-11T03:17:29.759Z,3.50
2023-05-11T03:19:59.267Z,3.67
2023-05-11T03:22:28.460Z,4.20
2023-05-11T03:24:57.867Z,3.70
2023-05-11T03:27:26.796Z,3.90
2023-05-11T03:29:56.809Z,3.90
2023-05-11T03:32:25.099Z,4.30
2023-05-11T03:34:53.709Z,4.37
2023-05-11T03:37:22.621Z,4.10
2023-05-11T03:39:55.971Z,3.90
2023-05-11T03:42:27.275Z,3.30
2023-05-11T03:44:58.530Z,4.10
2023-05-11T03:47:28.267Z,4.83
2023-05-11T03:49:57.068Z,5.20
2023-05-11T03:52:25.674Z,4.30
2023-05-11T03:54:53.686Z,3.33
2023-05-11T03:57:21.721Z,2.83
2023-05-11T03:59:51.189Z,3.10
2023-05-11T04:02:19.144Z,3.80
2023-05-11T04:04:47.374Z,3.43
2023-05-11T04:07:15.350Z,3.00
2023-05-11T04:09:43.441Z,3.30
2023-05-11T04:12:11.370Z,3.03
2023-05-11T04:14:39.307Z,3.60
2023-05-11T04:17:08.552Z,2.73
2023-05-11T04:19:36.478Z,3.43
2023-05-11T04:22:04.375Z,3.20
2023-05-11T04:24:32.247Z,2.77
2023-05-11T04:27:00.252Z,2.63
2023-05-11T04:29:28.288Z,2.83
2023-05-11T04:31:56.509Z,2.22
2023-05-11T04:34:25.915Z,2.57
2023-05-11T04:36:53.822Z,2.88
2023-05-11T04:39:22.152Z,2.65
2023-05-11T04:41:50.132Z,3.13
2023-05-11T04:44:18.156Z,2.78
2023-05-11T04:46:46.034Z,2.90
2023-05-11T04:49:14.031Z,2.97
2023-05-11T04:51:43.342Z,3.00
2023-05-11T04:54:11.427Z,3.00
2023-05-11T04:56:40.848Z,3.10
2023-05-11T04:59:09.129Z,2.92
2023-05-11T05:01:37.380Z,3.00
2023-05-11T05:04:05.447Z,3.35
2023-05-11T05:06:33.921Z,2.70
2023-05-11T05:09:05.141Z,2.70
2023-05-11T05:11:33.274Z,2.92
2023-05-11T05:14:02.547Z,2.75
2023-05-11T05:16:32.445Z,3.40
2023-05-11T05:19:00.815Z,3.00
2023-05-11T05:21:28.988Z,3.22
2023-05-11T05:23:56.870Z,2.92
2023-05-11T05:26:26.341Z,2.90
2023-05-11T05:29:04.129Z,2.25
2023-05-11T05:31:40.357Z,2.45
2023-05-11T05:34:15.546Z,2.90
2023-05-11T05:36:44.520Z,2.42
2023-05-11T05:39:12.778Z,2.80
2023-05-11T05:41:43.841Z,2.53
2023-05-11T05:44:11.758Z,3.28
2023-05-11T05:46:39.776Z,2.97
2023-05-11T05:49:07.904Z,2.75
2023-05-11T05:51:36.009Z,3.05
2023-05-11T05:54:03.856Z,3.00
2023-05-11T05:56:32.157Z,2.83
2023-05-11T05:59:01.427Z,2.92
2023-05-11T06:01:29.422Z,2.70
2023-05-11T06:03:57.600Z,3.05
2023-05-11T06:06:26.082Z,2.45
2023-05-11T06:08:54.042Z,2.40
2023-05-11T06:11:22.780Z,2.83
2023-05-11T06:13:50.746Z,2.45
2023-05-11T06:16:20.080Z,2.47
2023-05-11T06:18:48.355Z,2.65
2023-05-11T06:21:16.369Z,2.92
2023-05-11T06:23:44.220Z,2.55
2023-05-11T06:26:12.335Z,2.60
2023-05-11T06:28:40.296Z,2.97
2023-05-11T06:31:08.150Z,2.60
2023-05-11T06:33:37.661Z,2.20
2023-05-11T06:36:06.482Z,2.65
2023-05-11T06:38:34.557Z,2.70
2023-05-11T06:41:02.556Z,2.85
2023-05-11T06:43:30.588Z,2.50
2023-05-11T06:45:58.620Z,2.60
2023-05-11T06:48:30.080Z,2.90
2023-05-11T06:50:59.449Z,2.72
2023-05-11T06:53:27.270Z,2.67
2023-05-11T06:55:55.918Z,2.72
2023-05-11T06:58:23.984Z,2.88
2023-05-11T07:00:52.050Z,2.40
2023-05-11T07:03:20.081Z,2.53
2023-05-11T07:05:48.050Z,2.60
2023-05-11T07:08:17.340Z,2.63
2023-05-11T07:10:45.363Z,2.25
2023-05-11T07:13:13.352Z,2.47
2023-05-11T07:15:41.601Z,2.58
2023-05-11T07:18:09.754Z,2.28
2023-05-11T07:20:37.708Z,2.38
2023-05-11T07:23:05.560Z,2.78
2023-05-11T07:25:35.021Z,2.20
2023-05-11T07:28:03.681Z,2.42
2023-05-11T07:30:31.820Z,2.25
2023-05-11T07:32:59.741Z,2.72
2023-05-11T07:35:27.707Z,2.47
2023-05-11T07:37:55.677Z,2.40
2023-05-11T07:40:23.750Z,2.35
2023-05-11T07:42:54.456Z,2.70
2023-05-11T07:45:22.378Z,2.33
2023-05-11T07:47:50.382Z,2.15
2023-05-11T07:50:19.186Z,2.42
2023-05-11T07:52:47.530Z,2.50
2023-05-11T07:55:15.467Z,2.45
2023-05-11T07:57:43.377Z,2.50
2023-05-11T08:00:14.025Z,2.63
2023-05-11T08:02:42.042Z,2.25
2023-05-11T08:05:10.458Z,2.70
2023-05-11T08:07:41.024Z,2.78
2023-05-11T08:10:10.452Z,2.28
2023-05-11T08:12:38.938Z,2.40
2023-05-11T08:15:07.457Z,2.28
2023-05-11T08:17:37.597Z,2.67
2023-05-11T08:20:07.010Z,2.47
2023-05-11T08:22:35.009Z,2.33
2023-05-11T08:25:03.872Z,2.60
2023-05-11T08:27:31.776Z,2.58
2023-05-11T08:30:02.165Z,2.58
2023-05-11T08:32:30.606Z,2.42
2023-05-11T08:35:00.238Z,2.47
2023-05-11T08:37:28.207Z,2.60
2023-05-11T08:39:56.192Z,2.72
2023-05-11T08:42:26.220Z,2.70
2023-05-11T08:44:57.057Z,2.67
2023-05-11T08:47:25.378Z,2.40
2023-05-11T08:49:54.000Z,2.53
2023-05-11T08:52:23.254Z,2.63
2023-05-11T08:54:53.097Z,2.50
2023-05-11T08:57:21.775Z,2.47
2023-05-11T08:59:50.291Z,2.63
2023-05-11T09:02:20.312Z,2.83
2023-05-11T09:04:49.296Z,2.90
2023-05-11T09:07:18.454Z,3.92
2023-05-11T09:09:48.985Z,2.58
2023-05-11T09:12:18.050Z,3.00
2023-05-11T09:14:47.179Z,2.67
2023-05-11T09:17:15.244Z,2.42
2023-05-11T09:20:00.062Z,2.40
2023-05-11T09:22:30.816Z,3.10
2023-05-11T09:25:01.826Z,2.75
2023-05-11T09:27:29.886Z,2.50
2023-05-11T09:29:58.034Z,2.53
2023-05-11T09:32:26.671Z,2.88
2023-05-11T09:34:54.664Z,2.53
2023-05-11T09:37:22.608Z,2.47
2023-05-11T09:40:25.205Z,2.30
2023-05-11T09:42:45.117Z,2.33
2023-05-11T09:45:13.132Z,2.20
2023-05-11T09:47:41.730Z,2.22
2023-05-11T09:50:18.780Z,2.40
2023-05-11T09:52:54.128Z,2.00
2023-05-11T09:55:22.215Z,1.90
2023-05-11T09:57:56.577Z,2.10
2023-05-11T10:00:26.426Z,2.60
2023-05-11T10:03:01.782Z,2.10
2023-05-11T10:05:31.876Z,2.65
2023-05-11T10:08:01.726Z,2.58
2023-05-11T10:10:33.125Z,2.15
2023-05-11T10:13:03.652Z,2.40
2023-05-11T10:15:36.705Z,2.38
2023-05-11T10:18:07.826Z,2.28
2023-05-11T10:20:36.007Z,1.80
2023-05-11T10:23:04.439Z,1.73
2023-05-11T10:25:32.513Z,2.17
2023-05-11T10:28:00.643Z,2.60
2023-05-11T10:30:30.818Z,2.30
2023-05-11T10:32:59.099Z,2.05
2023-05-11T10:35:27.745Z,2.22
2023-05-11T10:37:55.934Z,2.45
2023-05-11T10:40:23.808Z,2.05
2023-05-11T10:43:19.081Z,2.30
2023-05-11T10:45:56.312Z,2.00
2023-05-11T10:48:54.968Z,2.08
2023-05-11T10:51:47.600Z,2.55
2023-05-11T10:54:30.793Z,1.90
2023-05-11T10:57:13.302Z,2.28
2023-05-11T11:00:11.266Z,2.22
2023-05-11T11:02:40.724Z,2.22
2023-05-11T11:05:14.137Z,2.30
2023-05-11T11:08:03.874Z,2.40
2023-05-11T11:10:33.567Z,2.33
2023-05-11T11:13:03.874Z,2.38
2023-05-11T11:16:05.247Z,2.33
2023-05-11T11:18:34.878Z,2.30
2023-05-11T11:21:05.319Z,2.10
2023-05-11T11:23:49.126Z,2.10
2023-05-11T11:26:21.139Z,2.08
2023-05-11T11:29:11.727Z,2.30
2023-05-11T11:31:40.780Z,2.22
2023-05-11T11:34:37.516Z,2.20
2023-05-11T11:37:06.833Z,1.92
2023-05-11T11:39:50.162Z,2.08
2023-05-11T11:42:19.509Z,1.80
2023-05-11T11:44:48.473Z,2.00
2023-05-11T11:47:17.584Z,2.25
2023-05-11T11:49:48.726Z,2.10
2023-05-11T11:52:34.734Z,2.00
2023-05-11T11:55:05.245Z,2.33
2023-05-11T11:57:51.211Z,2.30
2023-05-11T12:00:22.820Z,2.22
2023-05-11T12:02:50.962Z,2.10
2023-05-11T12:05:22.848Z,2.30
2023-05-11T12:07:52.526Z,2.28
2023-05-11T12:10:21.972Z,2.45
2023-05-11T12:12:51.390Z,3.00
2023-05-11T12:15:26.024Z,2.65
2023-05-11T12:17:54.174Z,2.40
2023-05-11T12:20:24.053Z,2.88
2023-05-11T12:22:52.328Z,2.33
2023-05-11T12:25:22.020Z,2.92
2023-05-11T12:27:51.901Z,2.20
2023-05-11T12:30:25.540Z,2.67
2023-05-11T12:32:57.386Z,2.50
2023-05-11T12:35:29.168Z,2.22
2023-05-11T12:37:58.242Z,2.38
2023-05-11T12:40:26.290Z,2.28
2023-05-11T12:42:55.924Z,2.50
2023-05-11T12:45:25.180Z,2.35
2023-05-11T12:47:54.970Z,2.15
2023-05-11T12:50:23.927Z,2.13
2023-05-11T12:52:53.239Z,2.03
2023-05-11T12:55:31.182Z,2.13
2023-05-11T12:58:11.536Z,2.00
2023-05-11T13:00:52.132Z,2.25
2023-05-11T13:03:23.075Z,1.95
2023-05-11T13:05:51.601Z,2.50
2023-05-11T13:08:21.416Z,2.35
2023-05-11T13:10:49.225Z,2.20
2023-05-11T13:13:28.463Z,2.20
2023-05-11T13:15:56.734Z,2.20
2023-05-11T13:18:24.771Z,2.22
2023-05-11T13:21:06.212Z,2.17
2023-05-11T13:23:36.933Z,1.70
2023-05-11T13:26:04.868Z,2.10
2023-05-11T13:28:35.253Z,2.10
2023-05-11T13:31:03.240Z,2.22
2023-05-11T13:33:31.173Z,2.10
2023-05-11T13:35:59.083Z,2.50
2023-05-11T13:38:26.929Z,2.40
2023-05-11T13:40:56.430Z,1.88
2023-05-11T13:43:26.619Z,2.30
2023-05-11T13:45:54.597Z,2.20
2023-05-11T13:48:22.699Z,2.20
2023-05-11T13:50:50.807Z,2.30
2023-05-11T13:53:18.642Z,2.05
2023-05-11T13:55:47.880Z,2.20
2023-05-11T13:58:17.914Z,2.22
2023-05-11T14:00:56.671Z,2.50
2023-05-11T14:03:35.060Z,1.90
2023-05-11T14:06:04.054Z,2.30
2023-05-11T14:08:31.900Z,2.20
2023-05-11T14:11:01.149Z,2.20
2023-05-11T14:13:30.351Z,2.35
2023-05-11T14:15:58.503Z,2.15
2023-05-11T14:18:26.743Z,2.15
2023-05-11T14:20:54.771Z,2.45
2023-05-11T14:23:22.632Z,2.20
2023-05-11T14:25:50.595Z,2.58
2023-05-11T14:28:18.759Z,1.92
2023-05-11T14:30:48.303Z,1.88
2023-05-11T14:33:16.370Z,1.90
2023-05-11T14:35:44.374Z,1.98
2023-05-11T14:38:12.204Z,2.40
2023-05-11T14:40:40.271Z,2.17
2023-05-11T14:43:08.277Z,1.98
2023-05-11T14:45:37.002Z,1.95
2023-05-11T14:48:09.396Z,1.95
2023-05-11T14:50:37.369Z,2.22
2023-05-11T14:53:05.633Z,2.28
2023-05-11T14:55:33.950Z,2.75
2023-05-11T14:58:04.123Z,2.28
2023-05-11T15:00:32.951Z,2.05
2023-05-11T15:03:00.975Z,2.10
2023-05-11T15:05:30.203Z,2.40
2023-05-11T15:07:59.819Z,2.10
2023-05-11T15:10:28.131Z,2.00
2023-05-11T15:12:56.046Z,2.30
2023-05-11T15:15:26.153Z,2.17
2023-05-11T15:17:54.156Z,2.42
2023-05-11T15:20:22.091Z,1.98
2023-05-11T15:22:51.468Z,2.40
2023-05-11T15:25:19.984Z,2.30
2023-05-11T15:27:48.081Z,2.50
2023-05-11T15:30:16.216Z,2.35
2023-05-11T15:32:44.278Z,2.15
2023-05-11T15:35:12.185Z,2.22
2023-05-11T15:37:40.033Z,2.03
2023-05-11T15:40:10.781Z,2.33
2023-05-11T15:42:38.690Z,2.60
2023-05-11T15:45:07.767Z,2.40
2023-05-11T15:47:35.736Z,2.38
2023-05-11T15:50:03.619Z,2.20
2023-05-11T15:52:31.692Z,2.10
2023-05-11T15:54:59.644Z,2.47
2023-05-11T15:57:28.881Z,2.30
2023-05-11T15:59:56.770Z,2.33
2023-05-11T16:02:24.786Z,1.98
2023-05-11T16:04:52.797Z,2.63
2023-05-11T16:07:20.660Z,2.22
2023-05-11T16:09:48.805Z,2.33
2023-05-11T16:12:16.684Z,2.55
2023-05-11T16:14:45.937Z,2.97
2023-05-11T16:17:14.218Z,2.03
2023-05-11T16:19:42.163Z,2.30
2023-05-11T16:22:10.132Z,2.67
2023-05-11T16:24:38.107Z,2.40
2023-05-11T16:27:06.343Z,2.45
2023-05-11T16:29:34.480Z,2.40
2023-05-11T16:32:03.855Z,2.40
2023-05-11T16:34:32.072Z,2.30
2023-05-11T16:36:59.956Z,2.20
2023-05-11T16:39:27.907Z,2.60
2023-05-11T16:41:55.806Z,2.58
2023-05-11T16:44:23.991Z,2.38
2023-05-11T16:46:52.441Z,2.60
2023-05-11T16:49:21.775Z,2.60
2023-05-11T16:51:49.715Z,2.53
2023-05-11T16:54:17.848Z,2.60
2023-05-11T16:56:45.826Z,2.80
2023-05-11T16:59:13.685Z,2.63
2023-05-11T17:01:42.074Z,2.53
2023-05-11T17:04:10.342Z,2.33
2023-05-11T17:06:39.962Z,2.53
2023-05-11T17:09:08.022Z,2.75
2023-05-11T17:11:35.997Z,2.10
2023-05-11T17:14:04.171Z,2.00
2023-05-11T17:16:32.304Z,2.38
2023-05-11T17:19:00.394Z,2.25
2023-05-11T17:21:30.886Z,2.28
2023-05-11T17:24:00.314Z,2.15
2023-05-11T17:26:39.145Z,2.20
2023-05-11T17:29:15.142Z,2.00
2023-05-11T17:31:43.318Z,2.08
2023-05-11T17:34:11.449Z,2.22
2023-05-11T17:36:39.785Z,2.13
2023-05-11T17:39:09.916Z,2.10
2023-05-11T17:41:37.761Z,2.10
2023-05-11T17:44:06.082Z,2.20
2023-05-11T17:46:34.670Z,2.28
2023-05-11T17:49:02.904Z,2.28
2023-05-11T17:51:31.265Z,2.17
2023-05-11T17:53:59.304Z,2.25
2023-05-11T17:56:29.002Z,1.90
2023-05-11T17:58:57.023Z,2.22
2023-05-11T18:01:25.351Z,2.20
2023-05-11T18:03:53.450Z,2.00
2023-05-11T18:06:21.581Z,1.88
2023-05-11T18:08:49.628Z,2.30
2023-05-11T18:11:17.686Z,1.90
2023-05-11T18:13:47.951Z,2.28
2023-05-11T18:16:15.886Z,2.42
2023-05-11T18:18:44.912Z,2.00
2023-05-11T18:21:12.980Z,1.90
2023-05-11T18:23:40.847Z,2.10
2023-05-11T18:26:08.896Z,1.98
2023-05-11T18:28:36.818Z,1.77
2023-05-11T18:31:06.098Z,2.22
2023-05-11T18:33:33.937Z,2.17
2023-05-11T18:36:03.241Z,2.50
2023-05-11T18:38:31.308Z,2.25
2023-05-11T18:40:59.244Z,2.22
2023-05-11T18:43:27.291Z,1.95
2023-05-11T18:45:55.173Z,2.30
2023-05-11T18:48:24.814Z,1.92
2023-05-11T18:50:55.506Z,2.53
2023-05-11T18:53:23.413Z,2.20
2023-05-11T18:55:53.553Z,2.22
2023-05-11T18:58:22.299Z,2.00
2023-05-11T19:00:51.165Z,2.45
2023-05-11T19:03:21.201Z,2.17
2023-05-11T19:05:51.851Z,2.35
2023-05-11T19:08:19.709Z,2.55
2023-05-11T19:10:48.219Z,2.40
2023-05-11T19:13:16.272Z,2.30
2023-05-11T19:15:44.655Z,2.20
2023-05-11T19:18:12.671Z,1.95
2023-05-11T19:20:40.715Z,1.70
2023-05-11T19:23:09.927Z,1.95
2023-05-11T19:25:37.757Z,1.98
2023-05-11T19:28:06.304Z,1.98
2023-05-11T19:30:34.152Z,2.40
2023-05-11T19:33:02.264Z,2.58
2023-05-11T19:35:30.405Z,2.20
2023-05-11T19:37:58.378Z,2.00
2023-05-11T19:40:45.419Z,2.00
2023-05-11T19:43:14.362Z,2.17
2023-05-11T19:45:43.673Z,2.50
2023-05-11T19:48:11.563Z,2.38
2023-05-11T19:50:39.459Z,2.67
2023-05-11T19:53:07.552Z,2.50
2023-05-11T19:55:37.346Z,2.30
2023-05-11T19:58:06.883Z,2.25
2023-05-11T20:00:34.986Z,2.22
2023-05-11T20:03:05.592Z,2.30
2023-05-11T20:05:33.552Z,2.30
2023-05-11T20:08:01.856Z,2.15
2023-05-11T20:10:29.834Z,2.20
2023-05-11T20:12:59.544Z,2.17
2023-05-11T20:15:27.437Z,2.92
2023-05-11T20:17:55.419Z,2.15
2023-05-11T20:20:23.816Z,2.53
2023-05-11T20:22:52.005Z,2.38
2023-05-11T20:25:20.339Z,2.50
2023-05-11T20:27:48.340Z,2.55
2023-05-11T20:30:18.249Z,3.22
2023-05-11T20:35:17.358Z,2.85
2023-05-11T20:37:45.373Z,2.45
2023-05-11T20:40:14.155Z,2.58
2023-05-11T20:42:42.115Z,2.67
2023-05-11T20:45:11.015Z,2.67
2023-05-11T20:47:40.280Z,2.70
2023-05-11T20:50:10.085Z,2.67
2023-05-11T20:52:38.308Z,2.53
2023-05-11T20:55:07.251Z,2.70
2023-05-11T20:57:35.260Z,3.20
2023-05-11T21:00:07.440Z,2.75
2023-05-11T21:02:35.517Z,2.30
2023-05-11T21:05:04.968Z,2.67
2023-05-11T21:07:32.836Z,2.78
2023-05-11T21:10:01.744Z,2.40
2023-05-11T21:12:29.808Z,3.20
2023-05-11T21:14:57.725Z,2.60
2023-05-11T21:17:25.721Z,2.63
2023-05-11T21:19:53.709Z,2.60
2023-05-11T21:22:23.045Z,2.65
2023-05-11T21:24:50.955Z,2.60
2023-05-11T21:27:18.879Z,2.72
2023-05-11T21:29:46.695Z,3.10
2023-05-11T21:32:14.668Z,2.85
2023-05-11T21:34:42.625Z,2.97
2023-05-11T21:37:10.634Z,3.13
2023-05-11T21:39:39.818Z,2.78
2023-05-11T21:42:09.131Z,3.20
2023-05-11T21:44:36.978Z,2.67
2023-05-11T21:47:05.253Z,2.90
2023-05-11T21:49:33.254Z,3.13
2023-05-11T21:52:03.294Z,2.70
2023-05-11T21:54:31.123Z,3.30
2023-05-11T21:57:00.553Z,2.92
2023-05-11T21:59:28.405Z,3.55
2023-05-11T22:01:57.237Z,2.85
2023-05-11T22:04:25.513Z,3.67
2023-05-11T22:06:53.331Z,3.90
2023-05-11T22:09:21.267Z,3.08
2023-05-11T22:11:49.168Z,2.80
2023-05-11T22:14:18.399Z,2.60
2023-05-11T22:16:46.328Z,2.85
2023-05-11T22:19:14.439Z,3.10
2023-05-11T22:21:42.332Z,2.75
2023-05-11T22:24:10.645Z,2.85
2023-05-11T22:26:38.645Z,2.88
2023-05-11T22:29:06.665Z,2.67
2023-05-11T22:31:36.045Z,2.83
2023-05-11T22:34:04.062Z,2.80
2023-05-11T22:36:33.221Z,2.63
2023-05-11T22:39:01.056Z,3.28
2023-05-11T22:41:29.055Z,2.88
2023-05-11T22:43:56.883Z,3.15
2023-05-11T22:46:24.840Z,2.83
2023-05-11T22:48:54.212Z,2.45
2023-05-11T22:51:22.038Z,2.50
2023-05-11T22:53:49.948Z,2.80
2023-05-11T22:56:18.027Z,2.70
2023-05-11T22:58:45.863Z,2.67
2023-05-11T23:01:14.241Z,2.63
2023-05-11T23:03:42.272Z,2.70
2023-05-11T23:06:12.524Z,2.63
2023-05-11T23:08:40.468Z,2.33
2023-05-11T23:11:08.521Z,2.70
2023-05-11T23:13:36.407Z,2.90
2023-05-11T23:16:04.636Z,2.70
2023-05-11T23:18:33.194Z,2.50
2023-05-11T23:21:01.866Z,2.70
2023-05-11T23:23:31.298Z,2.72
2023-05-11T23:25:59.217Z,2.50
2023-05-11T23:28:27.081Z,2.75
2023-05-11T23:30:54.890Z,2.80
2023-05-11T23:33:22.956Z,2.67
2023-05-11T23:35:50.870Z,2.80
2023-05-11T23:38:18.889Z,2.60
2023-05-11T23:40:48.723Z,2.80
2023-05-11T23:43:16.785Z,2.77
2023-05-11T23:45:44.651Z,2.50
2023-05-11T23:48:12.710Z,2.60
2023-05-11T23:50:40.639Z,2.70
2023-05-11T23:53:08.493Z,2.57
2023-05-11T23:55:36.367Z,2.37
2023-05-11T23:58:05.585Z,2.53
